Time;durP1;ratioP1;P1;durP2;ratioP2;P2;SDS_P1;SDS_P2;PMS_P1;PMS_P2;Temp;Humidity;BMP_temperature;BMP_pressure;BME280_temperature;BME280_humidity;BME280_pressure;Samples;Min_cycle;Max_cycle;Signal;HPM_P1;HPM_P2
2021/09/04 00:01:57;;;;;;;7.57;4.78;;;;;;;;;;5099785;28;20067;-81
2021/09/04 00:04:23;;;;;;;6.60;4.57;;;;;;;;;;5101435;28;20052;-81
2021/09/04 00:06:50;;;;;;;8.15;5.00;;;;;;;;;;5102648;28;20036;-80
2021/09/04 00:09:16;;;;;;;9.02;5.18;;;;;;;;;;5101067;28;20071;-81
2021/09/04 00:11:42;;;;;;;6.47;4.32;;;;;;;;;;5100672;28;20036;-82
2021/09/04 00:14:09;;;;;;;8.77;5.13;;;;;;;;;;5099916;28;20043;-80
2021/09/04 00:16:37;;;;;;;7.95;5.15;;;;;;;;;;5100283;28;20051;-81
2021/09/04 00:19:03;;;;;;;7.20;4.63;;;;;;;;;;5099584;28;20044;-81
2021/09/04 00:21:30;;;;;;;7.70;4.95;;;;;;;;;;5099261;28;20066;-81
2021/09/04 00:23:56;;;;;;;7.22;4.30;;;;;;;;;;5100016;28;20048;-81
2021/09/04 00:26:24;;;;;;;8.63;4.75;;;;;;;;;;5099611;28;20040;-81
2021/09/04 00:28:51;;;;;;;7.10;4.30;;;;;;;;;;5099929;28;20036;-82
2021/09/04 00:31:18;;;;;;;7.93;4.65;;;;;;;;;;5098949;28;20545;-81
2021/09/04 00:33:45;;;;;;;8.68;4.88;;;;;;;;;;5100458;28;20234;-81
2021/09/04 00:36:12;;;;;;;8.27;5.00;;;;;;;;;;5100394;28;20051;-81
2021/09/04 00:38:38;;;;;;;8.25;4.85;;;;;;;;;;5100536;28;20036;-81
2021/09/04 00:41:04;;;;;;;7.90;4.60;;;;;;;;;;5100270;28;20051;-81
2021/09/04 00:43:31;;;;;;;7.85;4.68;;;;;;;;;;5099646;28;20040;-81
2021/09/04 00:46:06;;;;;;;8.48;5.18;;;;;;;;;;5100113;28;20048;-81
2021/09/04 00:48:32;;;;;;;7.60;4.95;;;;;;;;;;5101917;28;20043;-81
2021/09/04 00:51:00;;;;;;;8.60;4.97;;;;;;;;;;5104339;28;20044;-81
2021/09/04 00:53:26;;;;;;;9.25;5.28;;;;;;;;;;5103477;28;20044;-80
2021/09/04 00:55:53;;;;;;;10.38;5.47;;;;;;;;;;5103790;28;20094;-81
2021/09/04 00:58:19;;;;;;;8.73;4.60;;;;;;;;;;5102747;28;20052;-81
2021/09/04 01:00:50;;;;;;;8.48;4.93;;;;;;;;;;5103282;28;20047;-80
2021/09/04 01:03:17;;;;;;;8.07;4.50;;;;;;;;;;5104237;28;20047;-81
2021/09/04 01:05:43;;;;;;;8.85;4.75;;;;;;;;;;5103462;28;20051;-80
2021/09/04 01:08:11;;;;;;;7.85;4.57;;;;;;;;;;5102709;28;20047;-81
2021/09/04 01:10:37;;;;;;;8.35;5.00;;;;;;;;;;5103153;28;20040;-81
2021/09/04 01:13:04;;;;;;;7.72;4.40;;;;;;;;;;5103324;28;20044;-81
2021/09/04 01:15:30;;;;;;;7.63;4.45;;;;;;;;;;5103913;28;20047;-81
2021/09/04 01:18:00;;;;;;;9.65;4.20;;;;;;;;;;5104535;28;20040;-81
2021/09/04 01:20:27;;;;;;;7.10;4.45;;;;;;;;;;5103718;28;20040;-81
2021/09/04 01:22:53;;;;;;;8.80;4.80;;;;;;;;;;5103147;28;20055;-81
2021/09/04 01:25:24;;;;;;;8.43;4.28;;;;;;;;;;5103215;28;20051;-81
2021/09/04 01:27:52;;;;;;;9.07;5.03;;;;;;;;;;5103299;28;20101;-81
2021/09/04 01:30:19;;;;;;;7.50;4.38;;;;;;;;;;5102684;28;20048;-81
2021/09/04 01:32:45;;;;;;;9.35;4.70;;;;;;;;;;5104157;28;20040;-81
2021/09/04 01:35:13;;;;;;;9.20;4.90;;;;;;;;;;5102928;28;20036;-81
2021/09/04 01:37:40;;;;;;;6.97;4.22;;;;;;;;;;5102879;28;20397;-81
2021/09/04 01:40:09;;;;;;;7.60;4.43;;;;;;;;;;5103030;28;20044;-80
2021/09/04 01:42:36;;;;;;;9.52;4.70;;;;;;;;;;5103287;28;20054;-81
2021/09/04 01:45:04;;;;;;;8.95;4.65;;;;;;;;;;5103109;28;20105;-81
2021/09/04 01:47:30;;;;;;;7.47;4.28;;;;;;;;;;5103608;28;20040;-81
2021/09/04 01:49:57;;;;;;;8.02;4.90;;;;;;;;;;5102841;28;20047;-80
2021/09/04 01:52:24;;;;;;;7.03;4.32;;;;;;;;;;5085110;28;20435;-81
2021/09/04 01:54:50;;;;;;;6.80;4.20;;;;;;;;;;5103151;28;20477;-81
2021/09/04 01:57:17;;;;;;;7.95;4.18;;;;;;;;;;5103283;28;20047;-81
2021/09/04 01:59:45;;;;;;;8.18;4.60;;;;;;;;;;5102947;28;20051;-80
2021/09/04 02:02:13;;;;;;;8.18;4.15;;;;;;;;;;5102579;28;20044;-81
2021/09/04 02:04:40;;;;;;;8.30;4.75;;;;;;;;;;5103354;28;20093;-81
2021/09/04 02:07:07;;;;;;;7.25;3.83;;;;;;;;;;5086036;28;20075;-81
2021/09/04 02:09:33;;;;;;;6.65;3.88;;;;;;;;;;5103546;28;20426;-81
2021/09/04 02:12:00;;;;;;;7.75;4.10;;;;;;;;;;5104382;28;20040;-81
2021/09/04 02:14:27;;;;;;;6.60;3.97;;;;;;;;;;5104359;28;20085;-81
2021/09/04 02:16:53;;;;;;;6.65;4.00;;;;;;;;;;5103707;28;20188;-81
2021/09/04 02:19:21;;;;;;;6.57;4.53;;;;;;;;;;5103874;28;20101;-81
2021/09/04 02:21:47;;;;;;;8.55;4.75;;;;;;;;;;5086176;28;20040;-81
2021/09/04 02:24:14;;;;;;;7.78;4.93;;;;;;;;;;5104447;28;20047;-81
2021/09/04 02:26:40;;;;;;;6.70;3.72;;;;;;;;;;5104204;28;20043;-80
2021/09/04 02:29:07;;;;;;;7.95;4.03;;;;;;;;;;5105171;28;20036;-80
2021/09/04 02:31:33;;;;;;;8.70;4.75;;;;;;;;;;5104352;28;20040;-80
2021/09/04 02:34:00;;;;;;;7.05;4.15;;;;;;;;;;5104377;28;20373;-80
2021/09/04 02:36:28;;;;;;;6.45;4.25;;;;;;;;;;5103064;28;20052;-81
2021/09/04 02:38:54;;;;;;;8.02;4.43;;;;;;;;;;5101613;28;20040;-80
2021/09/04 02:41:21;;;;;;;6.63;3.92;;;;;;;;;;5101915;28;20043;-80
2021/09/04 02:43:47;;;;;;;8.20;4.50;;;;;;;;;;5102090;28;20074;-80
2021/09/04 02:46:14;;;;;;;7.95;4.53;;;;;;;;;;5083506;28;20083;-81
2021/09/04 02:48:41;;;;;;;8.43;4.53;;;;;;;;;;5101073;28;20040;-80
2021/09/04 02:51:07;;;;;;;5.90;3.67;;;;;;;;;;5100348;28;20040;-81
2021/09/04 02:53:35;;;;;;;9.10;4.20;;;;;;;;;;5101489;28;20044;-80
2021/09/04 02:56:01;;;;;;;6.10;3.97;;;;;;;;;;5100326;28;20044;-81
2021/09/04 02:58:28;;;;;;;7.63;4.70;;;;;;;;;;5100490;28;20044;-80
2021/09/04 03:00:54;;;;;;;7.07;3.97;;;;;;;;;;5100244;28;20119;-80
2021/09/04 03:03:21;;;;;;;6.65;4.38;;;;;;;;;;5101415;28;20047;-81
2021/09/04 03:05:47;;;;;;;6.85;3.88;;;;;;;;;;5100215;28;20044;-81
2021/09/04 03:08:13;;;;;;;8.98;4.47;;;;;;;;;;5100047;28;20435;-80
2021/09/04 03:10:41;;;;;;;7.07;4.25;;;;;;;;;;5100234;28;20044;-80
2021/09/04 03:13:07;;;;;;;8.38;4.20;;;;;;;;;;5100900;28;20047;-80
2021/09/04 03:15:34;;;;;;;7.90;4.43;;;;;;;;;;5100991;28;20044;-80
2021/09/04 03:18:00;;;;;;;7.97;4.50;;;;;;;;;;5100533;28;20040;-80
2021/09/04 03:20:27;;;;;;;7.28;4.10;;;;;;;;;;5101257;28;20044;-80
2021/09/04 03:22:53;;;;;;;7.43;3.80;;;;;;;;;;5099979;28;20500;-81
2021/09/04 03:25:19;;;;;;;6.70;3.97;;;;;;;;;;5100883;28;20105;-80
2021/09/04 03:27:47;;;;;;;8.43;4.43;;;;;;;;;;5099593;28;20224;-80
2021/09/04 03:30:14;;;;;;;7.63;4.18;;;;;;;;;;5100432;28;20040;-81
2021/09/04 03:32:40;;;;;;;9.13;4.57;;;;;;;;;;5100259;28;20047;-80
2021/09/04 03:35:07;;;;;;;6.85;3.80;;;;;;;;;;5100839;28;20048;-80
2021/09/04 03:37:34;;;;;;;7.78;4.70;;;;;;;;;;5099990;28;20476;-80
2021/09/04 03:40:00;;;;;;;7.50;4.43;;;;;;;;;;5100809;28;20043;-80
2021/09/04 03:42:27;;;;;;;9.02;4.70;;;;;;;;;;5100667;28;20044;-80
2021/09/04 03:44:54;;;;;;;8.60;4.55;;;;;;;;;;5099160;28;20472;-80
2021/09/04 03:47:21;;;;;;;6.47;4.50;;;;;;;;;;5099836;28;20040;-80
2021/09/04 03:49:47;;;;;;;7.40;4.43;;;;;;;;;;5100153;28;20039;-80
2021/09/04 03:52:14;;;;;;;6.72;4.25;;;;;;;;;;5099945;28;20044;-80
2021/09/04 03:54:40;;;;;;;6.97;3.97;;;;;;;;;;5099855;28;20051;-80
2021/09/04 03:57:07;;;;;;;6.88;4.38;;;;;;;;;;5099261;28;20040;-81
2021/09/04 03:59:33;;;;;;;6.57;4.45;;;;;;;;;;5099405;28;20040;-80
2021/09/04 04:02:01;;;;;;;9.23;3.97;;;;;;;;;;5099869;28;20040;-80
2021/09/04 04:04:27;;;;;;;5.90;3.85;;;;;;;;;;5098940;28;20093;-80
2021/09/04 04:06:54;;;;;;;8.40;4.45;;;;;;;;;;5098084;28;20460;-80
2021/09/04 04:09:20;;;;;;;6.00;3.63;;;;;;;;;;5098854;28;20044;-79
2021/09/04 04:11:47;;;;;;;6.80;3.88;;;;;;;;;;5098602;28;20048;-80
2021/09/04 04:14:13;;;;;;;12.25;4.30;;;;;;;;;;5098305;28;20353;-79
2021/09/04 04:16:40;;;;;;;9.05;4.22;;;;;;;;;;5098898;28;20043;-80
2021/09/04 04:19:07;;;;;;;5.63;3.72;;;;;;;;;;5098768;28;20051;-80
2021/09/04 04:21:34;;;;;;;7.45;3.97;;;;;;;;;;5099189;28;20380;-80
2021/09/04 04:24:00;;;;;;;9.05;4.32;;;;;;;;;;5097722;28;20051;-79
2021/09/04 04:26:27;;;;;;;9.60;4.32;;;;;;;;;;5098149;28;20476;-80
2021/09/04 04:28:53;;;;;;;8.93;3.97;;;;;;;;;;5098507;28;20036;-79
2021/09/04 04:31:20;;;;;;;7.53;4.10;;;;;;;;;;5098886;28;20048;-80
2021/09/04 04:33:46;;;;;;;6.43;3.92;;;;;;;;;;5098986;28;20228;-80
2021/09/04 04:36:14;;;;;;;9.98;4.45;;;;;;;;;;5097377;28;20472;-80
2021/09/04 04:38:40;;;;;;;9.88;4.50;;;;;;;;;;5098737;28;20044;-80
2021/09/04 04:41:07;;;;;;;8.52;4.47;;;;;;;;;;5098839;28;20044;-80
2021/09/04 04:43:33;;;;;;;11.85;4.63;;;;;;;;;;5099050;28;20050;-80
2021/09/04 04:46:00;;;;;;;9.57;4.57;;;;;;;;;;5099483;28;20051;-80
2021/09/04 04:48:26;;;;;;;8.88;5.82;;;;;;;;;;5099362;28;20588;-80
2021/09/04 04:50:52;;;;;;;8.70;3.90;;;;;;;;;;5098889;28;20477;-80
2021/09/04 04:53:20;;;;;;;8.95;4.30;;;;;;;;;;5099142;28;20048;-80
2021/09/04 04:55:47;;;;;;;9.02;4.88;;;;;;;;;;5101955;28;20101;-79
2021/09/04 04:58:13;;;;;;;7.35;4.22;;;;;;;;;;5099545;28;20040;-80
2021/09/04 05:00:40;;;;;;;8.52;4.15;;;;;;;;;;5098659;28;20396;-80
2021/09/04 05:03:06;;;;;;;7.88;4.40;;;;;;;;;;5099429;28;20104;-80
2021/09/04 05:05:34;;;;;;;7.20;4.30;;;;;;;;;;5098313;28;20048;-81
2021/09/04 05:08:00;;;;;;;7.60;4.10;;;;;;;;;;5099419;28;20132;-80
2021/09/04 05:10:28;;;;;;;7.95;4.07;;;;;;;;;;5098367;28;20071;-80
2021/09/04 05:12:54;;;;;;;12.30;5.13;;;;;;;;;;5098422;28;20044;-80
2021/09/04 05:15:21;;;;;;;10.95;4.47;;;;;;;;;;5098791;28;20036;-80
2021/09/04 05:17:47;;;;;;;8.77;4.15;;;;;;;;;;5098947;28;20040;-80
2021/09/04 05:20:14;;;;;;;11.65;4.80;;;;;;;;;;5098445;28;20369;-80
2021/09/04 05:22:42;;;;;;;9.18;4.75;;;;;;;;;;5098140;28;20438;-80
2021/09/04 05:25:10;;;;;;;8.18;4.28;;;;;;;;;;5098842;28;20360;-80
2021/09/04 05:27:38;;;;;;;8.13;5.35;;;;;;;;;;5099065;28;20044;-81
2021/09/04 05:30:05;;;;;;;7.63;5.00;;;;;;;;;;5098300;28;20118;-80
2021/09/04 05:32:31;;;;;;;8.77;4.93;;;;;;;;;;5098391;28;20047;-80
2021/09/04 05:34:59;;;;;;;6.00;4.05;;;;;;;;;;5100945;28;20506;-80
2021/09/04 05:37:26;;;;;;;8.75;4.47;;;;;;;;;;5101455;28;20503;-80
2021/09/04 05:39:53;;;;;;;6.72;4.00;;;;;;;;;;5101994;28;20040;-80
2021/09/04 05:42:19;;;;;;;6.25;3.63;;;;;;;;;;5101871;28;20048;-80
2021/09/04 05:44:47;;;;;;;7.15;4.00;;;;;;;;;;5101789;28;20047;-80
2021/09/04 05:47:14;;;;;;;5.07;3.28;;;;;;;;;;5101752;28;20043;-80
2021/09/04 05:49:40;;;;;;;6.80;4.47;;;;;;;;;;5100990;28;20422;-80
2021/09/04 05:52:07;;;;;;;10.10;5.53;;;;;;;;;;5083049;28;20083;-80
2021/09/04 05:54:34;;;;;;;9.95;5.80;;;;;;;;;;5101740;28;20051;-80
2021/09/04 05:57:01;;;;;;;10.18;5.60;;;;;;;;;;5100811;28;20040;-80
2021/09/04 05:59:27;;;;;;;11.75;5.93;;;;;;;;;;5101682;28;20051;-80
2021/09/04 06:01:55;;;;;;;11.15;6.90;;;;;;;;;;5100975;28;20047;-80
2021/09/04 06:04:21;;;;;;;11.75;6.88;;;;;;;;;;5101002;28;20044;-80
2021/09/04 06:06:48;;;;;;;16.90;7.65;;;;;;;;;;5101099;28;20499;-81
2021/09/04 06:09:14;;;;;;;12.25;6.38;;;;;;;;;;5101109;28;20118;-80
2021/09/04 06:11:40;;;;;;;12.25;6.07;;;;;;;;;;5101694;28;20044;-81
2021/09/04 06:14:07;;;;;;;12.00;6.57;;;;;;;;;;5101303;28;20055;-81
2021/09/04 06:16:33;;;;;;;14.80;6.57;;;;;;;;;;5100460;28;20040;-81
2021/09/04 06:19:01;;;;;;;11.48;6.70;;;;;;;;;;5100882;28;20062;-80
2021/09/04 06:21:28;;;;;;;10.93;6.28;;;;;;;;;;5101319;28;20456;-81
2021/09/04 06:23:54;;;;;;;13.65;7.20;;;;;;;;;;5101128;28;20079;-81
2021/09/04 06:26:21;;;;;;;13.45;7.40;;;;;;;;;;5100420;28;20044;-81
2021/09/04 06:28:48;;;;;;;12.73;7.05;;;;;;;;;;5101337;28;20044;-81
2021/09/04 06:31:14;;;;;;;11.85;6.18;;;;;;;;;;5099996;28;20055;-83
2021/09/04 06:33:40;;;;;;;20.50;8.15;;;;;;;;;;5100993;28;20101;-81
2021/09/04 06:36:08;;;;;;;10.35;6.28;;;;;;;;;;5100644;28;20051;-80
2021/09/04 06:38:35;;;;;;;10.10;6.00;;;;;;;;;;5100819;28;20062;-81
2021/09/04 06:41:02;;;;;;;9.57;5.70;;;;;;;;;;5100395;28;20393;-81
2021/09/04 06:43:28;;;;;;;10.90;6.13;;;;;;;;;;5099799;28;20051;-80
2021/09/04 06:45:55;;;;;;;18.58;6.95;;;;;;;;;;5100205;28;20047;-81
2021/09/04 06:48:21;;;;;;;9.70;5.38;;;;;;;;;;5099807;28;20046;-80
2021/09/04 06:50:48;;;;;;;9.80;5.63;;;;;;;;;;5100242;28;20131;-81
2021/09/04 06:53:15;;;;;;;8.82;5.80;;;;;;;;;;5100663;28;20040;-81
2021/09/04 06:55:42;;;;;;;10.82;6.47;;;;;;;;;;5100452;28;20051;-81
2021/09/04 06:58:08;;;;;;;10.27;6.13;;;;;;;;;;5099690;28;20040;-79
2021/09/04 07:00:35;;;;;;;14.75;7.28;;;;;;;;;;5100101;28;20047;-79
2021/09/04 07:03:01;;;;;;;8.25;5.90;;;;;;;;;;5100943;28;20048;-80
2021/09/04 07:05:28;;;;;;;15.05;6.53;;;;;;;;;;5100980;28;20040;-80
2021/09/04 07:07:54;;;;;;;9.73;6.28;;;;;;;;;;5100125;28;20044;-80
2021/09/04 07:10:22;;;;;;;9.90;5.70;;;;;;;;;;5101450;28;20051;-81
2021/09/04 07:12:48;;;;;;;10.07;6.47;;;;;;;;;;5101326;28;20044;-81
2021/09/04 07:15:15;;;;;;;10.90;6.40;;;;;;;;;;5104582;28;20396;-80
2021/09/04 07:17:41;;;;;;;9.98;7.10;;;;;;;;;;5091375;28;20040;-81
2021/09/04 07:20:09;;;;;;;10.23;5.88;;;;;;;;;;5099688;28;20113;-80
2021/09/04 07:22:35;;;;;;;11.20;7.47;;;;;;;;;;5099646;28;20048;-81
2021/09/04 07:25:02;;;;;;;10.55;7.13;;;;;;;;;;5063880;28;20460;-81
2021/09/04 07:27:30;;;;;;;12.68;7.05;;;;;;;;;;5099435;28;20040;-81
2021/09/04 07:29:56;;;;;;;12.65;8.45;;;;;;;;;;5098977;28;20048;-80
2021/09/04 07:32:23;;;;;;;9.23;6.63;;;;;;;;;;5100655;28;20047;-81
2021/09/04 07:34:49;;;;;;;10.02;6.90;;;;;;;;;;5098619;28;20052;-81
2021/09/04 07:37:15;;;;;;;11.80;7.43;;;;;;;;;;5099304;28;20040;-80
2021/09/04 07:39:42;;;;;;;12.57;8.80;;;;;;;;;;5099162;28;20040;-81
2021/09/04 07:42:08;;;;;;;13.10;7.85;;;;;;;;;;5098429;28;20047;-81
2021/09/04 07:44:36;;;;;;;14.32;8.30;;;;;;;;;;5099381;28;20071;-81
2021/09/04 07:47:06;;;;;;;10.48;7.50;;;;;;;;;;5098843;28;20051;-81
2021/09/04 07:49:32;;;;;;;14.25;9.38;;;;;;;;;;5098251;28;20047;-81
2021/09/04 07:51:59;;;;;;;12.73;8.60;;;;;;;;;;5098491;28;20369;-82
2021/09/04 07:54:25;;;;;;;14.75;8.82;;;;;;;;;;5098219;28;20039;-81
2021/09/04 07:56:52;;;;;;;9.82;6.70;;;;;;;;;;5099543;28;20047;-82
2021/09/04 07:59:18;;;;;;;12.38;7.50;;;;;;;;;;5081479;28;20043;-81
2021/09/04 08:01:46;;;;;;;10.45;7.32;;;;;;;;;;5048315;28;20083;-82
2021/09/04 08:04:14;;;;;;;10.77;8.10;;;;;;;;;;5099613;28;20040;-82
2021/09/04 08:06:40;;;;;;;14.63;8.45;;;;;;;;;;5099947;28;20131;-82
2021/09/04 08:09:07;;;;;;;10.50;7.75;;;;;;;;;;5098940;28;20380;-82
2021/09/04 08:11:33;;;;;;;11.73;7.93;;;;;;;;;;5099314;28;20071;-83
2021/09/04 08:14:00;;;;;;;10.40;8.27;;;;;;;;;;5099041;28;20046;-82
2021/09/04 08:16:27;;;;;;;9.73;7.45;;;;;;;;;;5099207;28;20040;-82
2021/09/04 08:18:57;;;;;;;11.93;7.32;;;;;;;;;;5100756;28;20043;-83
2021/09/04 08:21:24;;;;;;;10.90;8.32;;;;;;;;;;5099810;28;20043;-82
2021/09/04 08:23:52;;;;;;;13.30;8.13;;;;;;;;;;5099035;28;20369;-81
2021/09/04 08:26:19;;;;;;;13.00;7.60;;;;;;;;;;5081788;28;20070;-82
2021/09/04 08:28:46;;;;;;;7.97;6.00;;;;;;;;;;5081286;28;20044;-82
2021/09/04 08:31:13;;;;;;;10.13;6.93;;;;;;;;;;5099596;28;20446;-83
2021/09/04 08:33:39;;;;;;;9.45;6.53;;;;;;;;;;5098627;28;20546;-83
2021/09/04 08:36:07;;;;;;;9.77;6.72;;;;;;;;;;5081050;28;20093;-83
2021/09/04 08:38:33;;;;;;;12.15;7.43;;;;;;;;;;5099241;28;20043;-83
2021/09/04 08:41:00;;;;;;;10.43;7.07;;;;;;;;;;5080471;28;20039;-83
2021/09/04 08:43:27;;;;;;;8.73;6.55;;;;;;;;;;5081095;28;20040;-82
2021/09/04 08:45:53;;;;;;;9.45;7.03;;;;;;;;;;5097824;28;20069;-83
2021/09/04 08:48:20;;;;;;;8.00;6.40;;;;;;;;;;5079812;28;20044;-82
2021/09/04 08:50:47;;;;;;;8.98;6.40;;;;;;;;;;5098223;28;20043;-82
2021/09/04 08:53:14;;;;;;;10.27;6.28;;;;;;;;;;5097363;28;20055;-83
2021/09/04 08:55:41;;;;;;;10.23;6.85;;;;;;;;;;5097295;28;20044;-83
2021/09/04 08:58:08;;;;;;;11.43;7.80;;;;;;;;;;5079870;28;20040;-83
2021/09/04 09:00:37;;;;;;;8.68;7.18;;;;;;;;;;5080221;28;20040;-82
2021/09/04 09:03:03;;;;;;;9.43;7.68;;;;;;;;;;5098450;28;20563;-83
2021/09/04 09:05:38;;;;;;;11.05;7.07;;;;;;;;;;5097912;28;20048;-82
2021/09/04 09:08:08;;;;;;;10.02;6.25;;;;;;;;;;5101504;28;20035;-82
2021/09/04 09:10:40;;;;;;;10.57;6.40;;;;;;;;;;5097170;28;20036;-83
2021/09/04 09:13:09;;;;;;;9.20;6.05;;;;;;;;;;5091027;28;20107;-83
2021/09/04 09:15:39;;;;;;;9.43;7.47;;;;;;;;;;5108980;28;20040;-82
2021/09/04 09:18:10;;;;;;;7.53;5.95;;;;;;;;;;5107829;28;20040;-83
2021/09/04 09:20:38;;;;;;;8.85;6.20;;;;;;;;;;5106753;28;20055;-84
2021/09/04 09:23:08;;;;;;;8.75;6.60;;;;;;;;;;5089009;28;20078;-83
2021/09/04 09:25:37;;;;;;;7.55;5.75;;;;;;;;;;5108482;28;20066;-83
2021/09/04 09:28:05;;;;;;;9.43;6.15;;;;;;;;;;5108005;28;20044;-83
2021/09/04 09:30:36;;;;;;;10.93;6.38;;;;;;;;;;5089949;28;20048;-82
2021/09/04 09:33:07;;;;;;;10.18;6.05;;;;;;;;;;5108269;28;20432;-84
2021/09/04 09:35:37;;;;;;;8.18;5.63;;;;;;;;;;5108532;28;20102;-83
2021/09/04 09:38:06;;;;;;;7.93;5.45;;;;;;;;;;5089357;28;20063;-83
2021/09/04 09:40:33;;;;;;;6.78;4.75;;;;;;;;;;5078889;28;20465;-83
2021/09/04 09:43:05;;;;;;;9.15;5.53;;;;;;;;;;5101488;28;20135;-83
2021/09/04 09:45:43;;;;;;;7.80;4.97;;;;;;;;;;5089784;28;20069;-83
2021/09/04 09:48:11;;;;;;;8.35;5.22;;;;;;;;;;5108095;28;20052;-83
2021/09/04 09:50:46;;;;;;;9.52;6.78;;;;;;;;;;5073851;28;20051;-84
2021/09/04 09:53:13;;;;;;;8.57;6.38;;;;;;;;;;5108247;28;20109;-84
2021/09/04 09:55:49;;;;;;;9.40;7.05;;;;;;;;;;5092004;28;20040;-84
2021/09/04 09:58:21;;;;;;;10.43;7.13;;;;;;;;;;5104416;28;20037;-83
2021/09/04 10:00:55;;;;;;;9.32;6.18;;;;;;;;;;5070935;28;20045;-83
2021/09/04 10:03:25;;;;;;;6.60;5.07;;;;;;;;;;5096599;28;20066;-83
2021/09/04 10:05:53;;;;;;;7.70;5.07;;;;;;;;;;5101222;28;20048;-83
2021/09/04 10:08:23;;;;;;;6.53;4.55;;;;;;;;;;5069438;28;20537;-84
2021/09/04 10:10:49;;;;;;;6.38;4.25;;;;;;;;;;5085297;28;20113;-83
2021/09/04 10:13:19;;;;;;;7.30;4.43;;;;;;;;;;5083366;28;20036;-85
2021/09/04 10:15:50;;;;;;;7.13;4.30;;;;;;;;;;5084586;28;20036;-83
2021/09/04 10:21:13;;;;;;;6.93;4.60;;;;;;;;;;5082114;28;20052;-84
2021/09/04 10:23:43;;;;;;;8.50;4.30;;;;;;;;;;5085746;28;20093;-83
2021/09/04 10:26:36;;;;;;;7.70;3.83;;;;;;;;;;5084598;28;20049;-83
2021/09/04 10:29:12;;;;;;;6.05;4.13;;;;;;;;;;5063155;28;20073;-83
2021/09/04 10:31:57;;;;;;;5.40;3.92;;;;;;;;;;5086403;28;20059;-83
2021/09/04 10:34:32;;;;;;;6.07;3.78;;;;;;;;;;5096632;28;20044;-85
2021/09/04 10:37:01;;;;;;;5.55;4.00;;;;;;;;;;5099770;28;20059;-83
2021/09/04 10:39:56;;;;;;;7.38;4.82;;;;;;;;;;5079927;28;20061;-83
2021/09/04 10:42:26;;;;;;;7.22;4.68;;;;;;;;;;5092487;28;20036;-83
2021/09/04 10:44:59;;;;;;;6.30;4.20;;;;;;;;;;5086864;28;20451;-83
2021/09/04 10:47:28;;;;;;;5.57;3.72;;;;;;;;;;5105408;28;20043;-84
2021/09/04 10:49:58;;;;;;;6.97;4.45;;;;;;;;;;5106109;28;20052;-83
2021/09/04 10:52:56;;;;;;;5.88;4.32;;;;;;;;;;5107984;28;20392;-83
2021/09/04 10:55:27;;;;;;;6.75;4.75;;;;;;;;;;5089295;28;20085;-82
2021/09/04 10:58:05;;;;;;;5.32;4.35;;;;;;;;;;5104730;28;20067;-83
2021/09/04 11:00:43;;;;;;;5.82;4.45;;;;;;;;;;5107299;28;20062;-83
2021/09/04 11:03:11;;;;;;;6.57;4.28;;;;;;;;;;5106418;28;20444;-84
2021/09/04 11:05:42;;;;;;;5.22;3.70;;;;;;;;;;5106213;28;20055;-84
2021/09/04 11:08:30;;;;;;;6.80;3.90;;;;;;;;;;5105770;28;20040;-81
2021/09/04 11:11:28;;;;;;;5.78;3.92;;;;;;;;;;5085870;28;20066;-83
2021/09/04 11:13:56;;;;;;;9.10;4.78;;;;;;;;;;5068763;28;20098;-83
2021/09/04 11:16:37;;;;;;;7.13;3.70;;;;;;;;;;5086576;28;20044;-83
2021/09/04 11:19:10;;;;;;;5.25;3.70;;;;;;;;;;5086117;28;20123;-84
2021/09/04 11:21:54;;;;;;;5.07;3.67;;;;;;;;;;5068617;28;20037;-84
2021/09/04 11:24:24;;;;;;;6.18;3.38;;;;;;;;;;5083201;28;20354;-83
2021/09/04 11:26:56;;;;;;;4.63;2.95;;;;;;;;;;5083610;28;20044;-83
2021/09/04 11:29:23;;;;;;;4.72;2.83;;;;;;;;;;5083682;28;20048;-83
2021/09/04 11:32:01;;;;;;;5.28;3.83;;;;;;;;;;5105355;28;20087;-84
2021/09/04 11:34:39;;;;;;;6.72;3.20;;;;;;;;;;5090325;28;20055;-84
2021/09/04 11:37:25;;;;;;;5.80;4.10;;;;;;;;;;5103772;28;20040;-83
2021/09/04 11:39:54;;;;;;;5.53;3.78;;;;;;;;;;5098514;28;20048;-84
2021/09/04 11:42:23;;;;;;;5.25;3.47;;;;;;;;;;5085473;28;20044;-83
2021/09/04 11:44:51;;;;;;;6.13;3.35;;;;;;;;;;5104010;28;20040;-83
2021/09/04 11:47:19;;;;;;;4.63;2.88;;;;;;;;;;5083719;28;20040;-83
2021/09/04 11:49:47;;;;;;;5.80;3.05;;;;;;;;;;5097754;28;20043;-84
2021/09/04 11:52:21;;;;;;;4.97;3.13;;;;;;;;;;5098161;28;20040;-83
2021/09/04 11:54:48;;;;;;;4.45;2.80;;;;;;;;;;5097637;28;20036;-84
2021/09/04 11:57:25;;;;;;;4.05;2.80;;;;;;;;;;5079721;28;20051;-84
2021/09/04 12:00:01;;;;;;;3.85;2.80;;;;;;;;;;5099756;28;20098;-84
2021/09/04 12:02:31;;;;;;;4.30;3.00;;;;;;;;;;5104570;28;20052;-83
2021/09/04 12:05:02;;;;;;;5.30;3.33;;;;;;;;;;5103164;28;20103;-83
2021/09/04 12:07:29;;;;;;;5.07;2.80;;;;;;;;;;5104421;28;20050;-83
2021/09/04 12:10:10;;;;;;;5.20;3.00;;;;;;;;;;5105888;28;20105;-83
2021/09/04 12:12:41;;;;;;;4.55;2.78;;;;;;;;;;5106567;28;20063;-83
2021/09/04 12:15:19;;;;;;;6.70;3.08;;;;;;;;;;5104707;28;20048;-84
2021/09/04 12:17:53;;;;;;;4.72;3.25;;;;;;;;;;5091991;28;20035;-83
2021/09/04 12:20:27;;;;;;;;;;;;;;;;;;5104719;28;20050;-83
2021/09/04 12:22:59;;;;;;;6.43;3.80;;;;;;;;;;5086152;28;19916;-84
2021/09/04 12:25:31;;;;;;;4.70;3.25;;;;;;;;;;5080138;28;20044;-83
2021/09/04 12:28:00;;;;;;;4.70;3.38;;;;;;;;;;5105068;28;20043;-82
2021/09/04 12:30:29;;;;;;;4.65;3.10;;;;;;;;;;5104371;28;20044;-83
2021/09/04 12:33:23;;;;;;;4.97;3.40;;;;;;;;;;5107274;28;20065;-83
2021/09/04 12:36:04;;;;;;;5.13;3.10;;;;;;;;;;5104714;28;20040;-83
2021/09/04 12:41:30;;;;;;;5.00;3.17;;;;;;;;;;5108965;28;20043;-82
2021/09/04 12:43:59;;;;;;;5.63;3.42;;;;;;;;;;5104993;28;20036;-83
2021/09/04 12:46:38;;;;;;;6.63;3.30;;;;;;;;;;5106253;28;20048;-82
2021/09/04 12:49:22;;;;;;;4.72;3.35;;;;;;;;;;5106852;28;20040;-83
2021/09/04 12:52:12;;;;;;;5.63;3.00;;;;;;;;;;5107800;28;20047;-83
2021/09/04 12:54:42;;;;;;;5.18;3.00;;;;;;;;;;5085914;28;20043;-82
2021/09/04 12:57:14;;;;;;;4.30;2.78;;;;;;;;;;5107401;28;20044;-83
2021/09/04 13:00:12;;;;;;;4.68;3.30;;;;;;;;;;5106601;28;20044;-84
2021/09/04 13:02:47;;;;;;;4.18;2.85;;;;;;;;;;5106281;28;20040;-83
2021/09/04 13:05:31;;;;;;;4.72;2.97;;;;;;;;;;5108399;28;20054;-82
2021/09/04 13:08:07;;;;;;;4.07;2.63;;;;;;;;;;5095229;28;20048;-81
2021/09/04 13:10:36;;;;;;;4.30;2.92;;;;;;;;;;5095613;28;20032;-82
2021/09/04 13:13:09;;;;;;;4.20;2.53;;;;;;;;;;5107316;28;20044;-82
2021/09/04 13:15:39;;;;;;;3.95;2.95;;;;;;;;;;5099000;28;20468;-82
2021/09/04 13:18:08;;;;;;;5.35;2.97;;;;;;;;;;5108216;28;20044;-82
2021/09/04 13:20:43;;;;;;;4.60;2.95;;;;;;;;;;5107379;28;20043;-83
2021/09/04 13:23:13;;;;;;;7.03;3.13;;;;;;;;;;5112486;28;20046;-82
2021/09/04 13:31:56;;;;;;;;;;;;;;;;;;;;;
2021/09/04 13:38:30;;;;;;;7.07;3.10;;;;;;;;;;4965058;28;20050;-83
2021/09/04 13:41:36;;;;;;;4.18;2.97;;;;;;;;;;4981567;28;20062;-82
2021/09/04 13:47:20;;;;;;;4.32;2.95;;;;;;;;;;4979500;28;20412;-81
2021/09/04 13:49:58;;;;;;;5.80;2.97;;;;;;;;;;5012345;28;20045;-83
2021/09/04 13:52:38;;;;;;;6.30;2.92;;;;;;;;;;5024749;28;20124;-84
2021/09/04 13:55:15;;;;;;;4.10;2.92;;;;;;;;;;5065629;28;20119;-82
2021/09/04 13:57:52;;;;;;;4.20;2.75;;;;;;;;;;5085259;28;20045;-83
2021/09/04 14:00:19;;;;;;;4.88;3.53;;;;;;;;;;5067613;28;20110;-83
2021/09/04 14:03:03;;;;;;;4.68;3.10;;;;;;;;;;5084826;28;20078;-81
2021/09/04 14:05:36;;;;;;;5.78;2.90;;;;;;;;;;5066060;28;20048;-82
2021/09/04 14:08:04;;;;;;;4.93;2.95;;;;;;;;;;5084039;28;20177;-82
2021/09/04 14:10:32;;;;;;;5.22;2.92;;;;;;;;;;5064898;28;20473;-82
2021/09/04 14:13:04;;;;;;;4.25;3.10;;;;;;;;;;5082302;28;20047;-82
2021/09/04 14:15:31;;;;;;;4.72;3.05;;;;;;;;;;5082537;28;20040;-82
2021/09/04 14:17:59;;;;;;;4.00;2.70;;;;;;;;;;5081875;28;20122;-83
2021/09/04 14:20:26;;;;;;;4.43;3.05;;;;;;;;;;5082465;28;20047;-83
2021/09/04 14:22:53;;;;;;;5.03;3.00;;;;;;;;;;5082421;28;20045;-82
2021/09/04 14:25:20;;;;;;;4.78;3.00;;;;;;;;;;5082563;28;20107;-83
2021/09/04 14:27:46;;;;;;;10.02;3.75;;;;;;;;;;5064882;28;20048;-83
2021/09/04 14:30:15;;;;;;;4.30;2.60;;;;;;;;;;5081457;28;20044;-83
2021/09/04 14:32:41;;;;;;;4.80;3.00;;;;;;;;;;5082245;28;20056;-83
2021/09/04 14:35:08;;;;;;;4.30;3.45;;;;;;;;;;5081932;28;20427;-83
2021/09/04 14:37:35;;;;;;;5.53;3.95;;;;;;;;;;5081978;28;20048;-82
2021/09/04 14:40:01;;;;;;;5.45;3.28;;;;;;;;;;5081658;28;20036;-82
2021/09/04 14:42:28;;;;;;;5.05;3.08;;;;;;;;;;5081652;28;20048;-82
2021/09/04 14:44:54;;;;;;;6.32;3.22;;;;;;;;;;5064024;28;20476;-82
2021/09/04 14:47:22;;;;;;;4.05;3.00;;;;;;;;;;5081817;28;20040;-82
2021/09/04 14:49:49;;;;;;;7.55;3.40;;;;;;;;;;5082012;28;20048;-83
2021/09/04 14:52:16;;;;;;;5.30;3.17;;;;;;;;;;5081600;28;20068;-82
2021/09/04 14:54:42;;;;;;;5.57;3.15;;;;;;;;;;5081765;28;20503;-82
2021/09/04 14:57:09;;;;;;;4.07;3.03;;;;;;;;;;5081627;28;20044;-83
2021/09/04 14:59:35;;;;;;;4.00;3.03;;;;;;;;;;5083324;28;20045;-83
2021/09/04 15:02:02;;;;;;;4.45;2.92;;;;;;;;;;5083489;28;20044;-83
2021/09/04 15:04:29;;;;;;;6.22;3.05;;;;;;;;;;5083280;28;20112;-83
2021/09/04 15:06:56;;;;;;;5.20;2.97;;;;;;;;;;5082168;28;20052;-83
2021/09/04 15:09:22;;;;;;;5.05;3.05;;;;;;;;;;5081811;28;20385;-82
2021/09/04 15:11:49;;;;;;;4.00;2.70;;;;;;;;;;5062907;28;20476;-83